sensor_id;sensor_type;location;lat;lon;timestamp;P1;durP1;ratioP1;P2;durP2;ratioP2
41946;SDS011;27638;42.184;24.848;2023-08-21T00:01:18;10.35;;;8.40;;
41946;SDS011;27638;42.184;24.848;2023-08-21T00:03:43;7.97;;;7.13;;
41946;SDS011;27638;42.184;24.848;2023-08-21T00:06:08;9.68;;;7.13;;
41946;SDS011;27638;42.184;24.848;2023-08-21T00:08:34;10.88;;;7.82;;
41946;SDS011;27638;42.184;24.848;2023-08-21T00:10:59;10.30;;;8.15;;
41946;SDS011;27638;42.184;24.848;2023-08-21T00:13:25;8.82;;;7.15;;
41946;SDS011;27638;42.184;24.848;2023-08-21T00:15:50;9.45;;;7.20;;
41946;SDS011;27638;42.184;24.848;2023-08-21T00:18:16;9.80;;;7.70;;
41946;SDS011;27638;42.184;24.848;2023-08-21T00:20:42;8.88;;;7.80;;
41946;SDS011;27638;42.184;24.848;2023-08-21T00:23:08;8.68;;;7.72;;
41946;SDS011;27638;42.184;24.848;2023-08-21T00:25:33;8.18;;;7.32;;
41946;SDS011;27638;42.184;24.848;2023-08-21T00:27:59;9.52;;;7.82;;
41946;SDS011;27638;42.184;24.848;2023-08-21T00:30:24;8.60;;;7.70;;
41946;SDS011;27638;42.184;24.848;2023-08-21T00:32:50;8.60;;;7.25;;
41946;SDS011;27638;42.184;24.848;2023-08-21T00:35:15;11.18;;;7.72;;
41946;SDS011;27638;42.184;24.848;2023-08-21T00:37:41;9.48;;;7.78;;
41946;SDS011;27638;42.184;24.848;2023-08-21T00:40:06;10.50;;;7.40;;
41946;SDS011;27638;42.184;24.848;2023-08-21T00:42:32;7.70;;;6.95;;
41946;SDS011;27638;42.184;24.848;2023-08-21T00:44:58;8.02;;;6.82;;
41946;SDS011;27638;42.184;24.848;2023-08-21T00:47:23;7.70;;;6.75;;
41946;SDS011;27638;42.184;24.848;2023-08-21T00:49:49;10.25;;;8.07;;
41946;SDS011;27638;42.184;24.848;2023-08-21T00:52:14;7.45;;;6.70;;
41946;SDS011;27638;42.184;24.848;2023-08-21T00:54:40;8.02;;;7.05;;
41946;SDS011;27638;42.184;24.848;2023-08-21T00:57:06;8.35;;;7.50;;
41946;SDS011;27638;42.184;24.848;2023-08-21T00:59:32;11.15;;;7.13;;
41946;SDS011;27638;42.184;24.848;2023-08-21T01:01:58;10.27;;;7.40;;
41946;SDS011;27638;42.184;24.848;2023-08-21T01:04:24;8.98;;;6.43;;
41946;SDS011;27638;42.184;24.848;2023-08-21T01:06:49;8.30;;;6.97;;
41946;SDS011;27638;42.184;24.848;2023-08-21T01:09:26;7.75;;;6.65;;
41946;SDS011;27638;42.184;24.848;2023-08-21T01:17:25;9.10;;;6.70;;
41946;SDS011;27638;42.184;24.848;2023-08-21T01:19:53;10.50;;;6.72;;
41946;SDS011;27638;42.184;24.848;2023-08-21T01:22:20;9.05;;;6.47;;
41946;SDS011;27638;42.184;24.848;2023-08-21T01:24:50;9.80;;;6.70;;
41946;SDS011;27638;42.184;24.848;2023-08-21T01:27:15;7.25;;;6.60;;
41946;SDS011;27638;42.184;24.848;2023-08-21T01:29:41;8.95;;;7.32;;
41946;SDS011;27638;42.184;24.848;2023-08-21T01:35:07;8.10;;;6.85;;
41946;SDS011;27638;42.184;24.848;2023-08-21T01:37:35;8.73;;;6.78;;
41946;SDS011;27638;42.184;24.848;2023-08-21T01:40:01;10.02;;;8.20;;
41946;SDS011;27638;42.184;24.848;2023-08-21T01:42:27;10.13;;;7.07;;
41946;SDS011;27638;42.184;24.848;2023-08-21T01:44:52;12.98;;;7.05;;
41946;SDS011;27638;42.184;24.848;2023-08-21T01:47:18;8.13;;;6.82;;
41946;SDS011;27638;42.184;24.848;2023-08-21T01:49:43;10.40;;;7.07;;
41946;SDS011;27638;42.184;24.848;2023-08-21T01:52:09;8.23;;;6.65;;
41946;SDS011;27638;42.184;24.848;2023-08-21T01:54:35;9.77;;;7.40;;
41946;SDS011;27638;42.184;24.848;2023-08-21T01:57:01;9.52;;;7.00;;
41946;SDS011;27638;42.184;24.848;2023-08-21T01:59:26;11.88;;;7.15;;
41946;SDS011;27638;42.184;24.848;2023-08-21T02:01:52;8.45;;;7.07;;
41946;SDS011;27638;42.184;24.848;2023-08-21T02:04:17;8.57;;;7.03;;
41946;SDS011;27638;42.184;24.848;2023-08-21T02:06:42;8.45;;;7.32;;
41946;SDS011;27638;42.184;24.848;2023-08-21T02:09:09;7.85;;;6.70;;
41946;SDS011;27638;42.184;24.848;2023-08-21T02:11:35;8.10;;;6.90;;
41946;SDS011;27638;42.184;24.848;2023-08-21T02:14:00;9.48;;;6.97;;
41946;SDS011;27638;42.184;24.848;2023-08-21T02:16:26;9.48;;;6.78;;
41946;SDS011;27638;42.184;24.848;2023-08-21T02:18:51;7.93;;;6.50;;
41946;SDS011;27638;42.184;24.848;2023-08-21T02:21:17;7.45;;;6.60;;
41946;SDS011;27638;42.184;24.848;2023-08-21T02:23:42;9.43;;;7.25;;
41946;SDS011;27638;42.184;24.848;2023-08-21T02:26:08;7.50;;;6.43;;
41946;SDS011;27638;42.184;24.848;2023-08-21T02:28:33;9.20;;;6.38;;
41946;SDS011;27638;42.184;24.848;2023-08-21T02:30:59;7.60;;;6.72;;
41946;SDS011;27638;42.184;24.848;2023-08-21T02:33:24;9.35;;;7.28;;
41946;SDS011;27638;42.184;24.848;2023-08-21T02:35:49;7.80;;;6.65;;
41946;SDS011;27638;42.184;24.848;2023-08-21T02:38:16;8.85;;;7.05;;
41946;SDS011;27638;42.184;24.848;2023-08-21T02:40:42;7.68;;;6.35;;
41946;SDS011;27638;42.184;24.848;2023-08-21T02:43:07;7.75;;;6.88;;
41946;SDS011;27638;42.184;24.848;2023-08-21T02:45:32;11.43;;;7.00;;
41946;SDS011;27638;42.184;24.848;2023-08-21T02:47:58;8.15;;;6.18;;
41946;SDS011;27638;42.184;24.848;2023-08-21T02:50:23;8.65;;;6.22;;
41946;SDS011;27638;42.184;24.848;2023-08-21T02:52:49;11.63;;;6.72;;
41946;SDS011;27638;42.184;24.848;2023-08-21T02:55:14;9.55;;;7.05;;
41946;SDS011;27638;42.184;24.848;2023-08-21T02:57:40;7.57;;;6.40;;
41946;SDS011;27638;42.184;24.848;2023-08-21T03:00:06;7.88;;;6.53;;
41946;SDS011;27638;42.184;24.848;2023-08-21T03:02:36;8.57;;;6.72;;
41946;SDS011;27638;42.184;24.848;2023-08-21T03:05:02;8.25;;;6.93;;
41946;SDS011;27638;42.184;24.848;2023-08-21T03:07:28;8.43;;;6.57;;
41946;SDS011;27638;42.184;24.848;2023-08-21T03:09:54;8.10;;;6.57;;
41946;SDS011;27638;42.184;24.848;2023-08-21T03:12:19;6.97;;;6.00;;
41946;SDS011;27638;42.184;24.848;2023-08-21T03:14:45;8.18;;;6.78;;
41946;SDS011;27638;42.184;24.848;2023-08-21T03:17:11;8.25;;;6.40;;
41946;SDS011;27638;42.184;24.848;2023-08-21T03:19:36;9.05;;;6.68;;
41946;SDS011;27638;42.184;24.848;2023-08-21T03:22:02;7.55;;;6.75;;
41946;SDS011;27638;42.184;24.848;2023-08-21T03:24:27;8.50;;;6.30;;
41946;SDS011;27638;42.184;24.848;2023-08-21T03:26:53;8.55;;;5.90;;
41946;SDS011;27638;42.184;24.848;2023-08-21T03:29:18;10.07;;;7.13;;
41946;SDS011;27638;42.184;24.848;2023-08-21T03:31:46;8.75;;;6.53;;
41946;SDS011;27638;42.184;24.848;2023-08-21T03:34:14;10.10;;;6.82;;
41946;SDS011;27638;42.184;24.848;2023-08-21T03:36:39;8.32;;;6.68;;
41946;SDS011;27638;42.184;24.848;2023-08-21T03:39:04;8.55;;;6.40;;
41946;SDS011;27638;42.184;24.848;2023-08-21T03:41:33;7.65;;;6.70;;
41946;SDS011;27638;42.184;24.848;2023-08-21T03:43:58;10.07;;;6.88;;
41946;SDS011;27638;42.184;24.848;2023-08-21T03:46:23;10.75;;;6.93;;
41946;SDS011;27638;42.184;24.848;2023-08-21T03:48:49;9.23;;;7.35;;
41946;SDS011;27638;42.184;24.848;2023-08-21T03:51:15;7.95;;;6.50;;
41946;SDS011;27638;42.184;24.848;2023-08-21T03:53:41;9.00;;;5.97;;
41946;SDS011;27638;42.184;24.848;2023-08-21T03:56:06;7.20;;;5.95;;
41946;SDS011;27638;42.184;24.848;2023-08-21T03:58:32;13.35;;;6.47;;
41946;SDS011;27638;42.184;24.848;2023-08-21T04:00:58;14.95;;;7.65;;
41946;SDS011;27638;42.184;24.848;2023-08-21T04:03:23;11.30;;;7.13;;
41946;SDS011;27638;42.184;24.848;2023-08-21T04:05:49;9.05;;;6.95;;
41946;SDS011;27638;42.184;24.848;2023-08-21T04:08:14;9.63;;;6.85;;
41946;SDS011;27638;42.184;24.848;2023-08-21T04:10:40;9.43;;;6.72;;
41946;SDS011;27638;42.184;24.848;2023-08-21T04:13:07;9.20;;;6.78;;
41946;SDS011;27638;42.184;24.848;2023-08-21T04:15:33;8.65;;;6.78;;
41946;SDS011;27638;42.184;24.848;2023-08-21T04:18:00;12.50;;;6.63;;
41946;SDS011;27638;42.184;24.848;2023-08-21T04:20:25;13.25;;;6.45;;
41946;SDS011;27638;42.184;24.848;2023-08-21T04:22:51;11.38;;;6.72;;
41946;SDS011;27638;42.184;24.848;2023-08-21T04:25:16;8.65;;;6.85;;
41946;SDS011;27638;42.184;24.848;2023-08-21T04:27:42;15.82;;;7.38;;
41946;SDS011;27638;42.184;24.848;2023-08-21T04:30:08;10.98;;;6.70;;
41946;SDS011;27638;42.184;24.848;2023-08-21T04:32:34;10.57;;;6.78;;
41946;SDS011;27638;42.184;24.848;2023-08-21T04:35:00;14.20;;;7.13;;
41946;SDS011;27638;42.184;24.848;2023-08-21T04:37:25;11.13;;;7.32;;
41946;SDS011;27638;42.184;24.848;2023-08-21T04:39:51;9.32;;;7.28;;
41946;SDS011;27638;42.184;24.848;2023-08-21T04:42:17;11.68;;;7.07;;
41946;SDS011;27638;42.184;24.848;2023-08-21T04:44:43;11.20;;;7.22;;
41946;SDS011;27638;42.184;24.848;2023-08-21T04:47:26;9.93;;;6.53;;
41946;SDS011;27638;42.184;24.848;2023-08-21T04:49:52;12.57;;;7.20;;
41946;SDS011;27638;42.184;24.848;2023-08-21T04:52:19;9.98;;;6.80;;
41946;SDS011;27638;42.184;24.848;2023-08-21T04:54:46;15.65;;;7.32;;
41946;SDS011;27638;42.184;24.848;2023-08-21T04:57:12;11.48;;;7.15;;
41946;SDS011;27638;42.184;24.848;2023-08-21T04:59:37;15.48;;;7.70;;
41946;SDS011;27638;42.184;24.848;2023-08-21T05:02:03;15.68;;;7.75;;
41946;SDS011;27638;42.184;24.848;2023-08-21T05:04:28;13.90;;;7.00;;
41946;SDS011;27638;42.184;24.848;2023-08-21T05:06:54;13.07;;;6.85;;
41946;SDS011;27638;42.184;24.848;2023-08-21T05:09:19;9.27;;;6.78;;
41946;SDS011;27638;42.184;24.848;2023-08-21T05:11:45;12.18;;;7.35;;
41946;SDS011;27638;42.184;24.848;2023-08-21T05:14:10;7.85;;;6.43;;
41946;SDS011;27638;42.184;24.848;2023-08-21T05:16:36;9.68;;;7.28;;
41946;SDS011;27638;42.184;24.848;2023-08-21T05:19:01;9.30;;;6.50;;
41946;SDS011;27638;42.184;24.848;2023-08-21T05:21:27;9.55;;;7.47;;
41946;SDS011;27638;42.184;24.848;2023-08-21T05:23:52;8.25;;;6.53;;
41946;SDS011;27638;42.184;24.848;2023-08-21T05:26:18;10.23;;;6.90;;
41946;SDS011;27638;42.184;24.848;2023-08-21T05:28:44;15.32;;;6.90;;
41946;SDS011;27638;42.184;24.848;2023-08-21T05:31:09;8.93;;;6.55;;
41946;SDS011;27638;42.184;24.848;2023-08-21T05:33:35;11.00;;;7.60;;
41946;SDS011;27638;42.184;24.848;2023-08-21T05:36:00;9.18;;;6.68;;
41946;SDS011;27638;42.184;24.848;2023-08-21T05:38:26;10.65;;;6.88;;
41946;SDS011;27638;42.184;24.848;2023-08-21T05:40:51;12.32;;;7.35;;
41946;SDS011;27638;42.184;24.848;2023-08-21T05:43:17;8.85;;;5.90;;
41946;SDS011;27638;42.184;24.848;2023-08-21T05:45:42;8.20;;;6.60;;
41946;SDS011;27638;42.184;24.848;2023-08-21T05:48:08;8.27;;;6.13;;
41946;SDS011;27638;42.184;24.848;2023-08-21T05:50:33;9.18;;;6.43;;
41946;SDS011;27638;42.184;24.848;2023-08-21T05:53:02;7.05;;;6.00;;
41946;SDS011;27638;42.184;24.848;2023-08-21T05:55:28;8.25;;;5.88;;
41946;SDS011;27638;42.184;24.848;2023-08-21T05:57:54;11.77;;;6.40;;
41946;SDS011;27638;42.184;24.848;2023-08-21T06:00:19;8.45;;;6.20;;
41946;SDS011;27638;42.184;24.848;2023-08-21T06:02:44;10.60;;;6.70;;
41946;SDS011;27638;42.184;24.848;2023-08-21T06:05:10;8.65;;;5.32;;
41946;SDS011;27638;42.184;24.848;2023-08-21T06:07:35;11.05;;;6.10;;
41946;SDS011;27638;42.184;24.848;2023-08-21T06:10:01;8.90;;;6.13;;
41946;SDS011;27638;42.184;24.848;2023-08-21T06:12:26;11.50;;;5.13;;
41946;SDS011;27638;42.184;24.848;2023-08-21T06:14:52;10.20;;;6.00;;
41946;SDS011;27638;42.184;24.848;2023-08-21T06:17:17;8.00;;;5.63;;
41946;SDS011;27638;42.184;24.848;2023-08-21T06:19:43;10.88;;;5.38;;
41946;SDS011;27638;42.184;24.848;2023-08-21T06:22:09;9.68;;;5.47;;
41946;SDS011;27638;42.184;24.848;2023-08-21T06:24:34;14.88;;;6.53;;
41946;SDS011;27638;42.184;24.848;2023-08-21T06:26:59;10.32;;;6.07;;
41946;SDS011;27638;42.184;24.848;2023-08-21T06:29:25;6.13;;;5.50;;
41946;SDS011;27638;42.184;24.848;2023-08-21T06:31:50;7.32;;;5.43;;
41946;SDS011;27638;42.184;24.848;2023-08-21T06:34:16;8.38;;;5.50;;
41946;SDS011;27638;42.184;24.848;2023-08-21T06:36:41;7.80;;;5.85;;
41946;SDS011;27638;42.184;24.848;2023-08-21T06:39:06;8.93;;;5.50;;
41946;SDS011;27638;42.184;24.848;2023-08-21T06:41:32;14.18;;;6.25;;
41946;SDS011;27638;42.184;24.848;2023-08-21T06:43:57;15.00;;;6.90;;
41946;SDS011;27638;42.184;24.848;2023-08-21T06:46:23;9.35;;;5.53;;
41946;SDS011;27638;42.184;24.848;2023-08-21T06:48:49;7.28;;;5.40;;
41946;SDS011;27638;42.184;24.848;2023-08-21T06:51:15;7.97;;;6.45;;
41946;SDS011;27638;42.184;24.848;2023-08-21T06:53:41;9.48;;;5.45;;
41946;SDS011;27638;42.184;24.848;2023-08-21T06:56:07;6.93;;;5.30;;
41946;SDS011;27638;42.184;24.848;2023-08-21T06:58:32;5.95;;;5.35;;
41946;SDS011;27638;42.184;24.848;2023-08-21T07:00:59;12.35;;;5.57;;
41946;SDS011;27638;42.184;24.848;2023-08-21T07:03:25;6.68;;;4.90;;
41946;SDS011;27638;42.184;24.848;2023-08-21T07:05:56;8.02;;;5.47;;
41946;SDS011;27638;42.184;24.848;2023-08-21T07:08:23;6.38;;;5.78;;
41946;SDS011;27638;42.184;24.848;2023-08-21T07:10:49;8.98;;;5.20;;
41946;SDS011;27638;42.184;24.848;2023-08-21T07:13:15;9.93;;;5.68;;
41946;SDS011;27638;42.184;24.848;2023-08-21T07:15:40;7.50;;;5.72;;
41946;SDS011;27638;42.184;24.848;2023-08-21T07:18:06;8.45;;;5.03;;
41946;SDS011;27638;42.184;24.848;2023-08-21T07:20:32;8.50;;;5.25;;
41946;SDS011;27638;42.184;24.848;2023-08-21T07:22:58;8.70;;;5.20;;
41946;SDS011;27638;42.184;24.848;2023-08-21T07:25:24;9.65;;;5.38;;
41946;SDS011;27638;42.184;24.848;2023-08-21T07:27:50;14.88;;;6.03;;
41946;SDS011;27638;42.184;24.848;2023-08-21T07:30:18;6.40;;;5.03;;
41946;SDS011;27638;42.184;24.848;2023-08-21T07:32:44;5.82;;;5.25;;
41946;SDS011;27638;42.184;24.848;2023-08-21T07:35:09;6.28;;;4.90;;
41946;SDS011;27638;42.184;24.848;2023-08-21T07:37:35;9.27;;;4.93;;
41946;SDS011;27638;42.184;24.848;2023-08-21T07:40:01;9.13;;;5.07;;
41946;SDS011;27638;42.184;24.848;2023-08-21T07:42:27;7.10;;;5.10;;
41946;SDS011;27638;42.184;24.848;2023-08-21T07:44:52;7.07;;;5.03;;
41946;SDS011;27638;42.184;24.848;2023-08-21T07:47:18;5.75;;;4.57;;
41946;SDS011;27638;42.184;24.848;2023-08-21T07:49:43;10.90;;;5.40;;
41946;SDS011;27638;42.184;24.848;2023-08-21T07:52:08;6.03;;;4.65;;
41946;SDS011;27638;42.184;24.848;2023-08-21T07:54:34;7.38;;;5.30;;
41946;SDS011;27638;42.184;24.848;2023-08-21T07:56:59;7.93;;;4.80;;
41946;SDS011;27638;42.184;24.848;2023-08-21T07:59:25;5.97;;;4.60;;
41946;SDS011;27638;42.184;24.848;2023-08-21T08:01:51;8.32;;;4.97;;
41946;SDS011;27638;42.184;24.848;2023-08-21T08:04:16;6.38;;;4.50;;
41946;SDS011;27638;42.184;24.848;2023-08-21T08:06:42;7.00;;;4.70;;
41946;SDS011;27638;42.184;24.848;2023-08-21T08:09:07;9.10;;;4.70;;
41946;SDS011;27638;42.184;24.848;2023-08-21T08:11:32;7.00;;;4.53;;
41946;SDS011;27638;42.184;24.848;2023-08-21T08:13:58;5.75;;;4.47;;
41946;SDS011;27638;42.184;24.848;2023-08-21T08:16:24;7.82;;;4.85;;
41946;SDS011;27638;42.184;24.848;2023-08-21T08:18:49;5.57;;;4.60;;
41946;SDS011;27638;42.184;24.848;2023-08-21T08:21:15;6.05;;;4.32;;
41946;SDS011;27638;42.184;24.848;2023-08-21T08:23:41;6.25;;;4.45;;
41946;SDS011;27638;42.184;24.848;2023-08-21T08:26:06;6.35;;;4.50;;
41946;SDS011;27638;42.184;24.848;2023-08-21T08:28:33;6.63;;;4.40;;
41946;SDS011;27638;42.184;24.848;2023-08-21T08:30:59;4.80;;;4.13;;
41946;SDS011;27638;42.184;24.848;2023-08-21T08:33:25;10.60;;;4.50;;
41946;SDS011;27638;42.184;24.848;2023-08-21T08:35:51;4.78;;;4.35;;
41946;SDS011;27638;42.184;24.848;2023-08-21T08:38:17;5.00;;;4.47;;
41946;SDS011;27638;42.184;24.848;2023-08-21T08:40:44;6.78;;;4.93;;
41946;SDS011;27638;42.184;24.848;2023-08-21T08:43:11;6.25;;;4.75;;
41946;SDS011;27638;42.184;24.848;2023-08-21T08:45:37;6.03;;;4.35;;
41946;SDS011;27638;42.184;24.848;2023-08-21T08:48:04;6.25;;;4.60;;
41946;SDS011;27638;42.184;24.848;2023-08-21T08:50:30;8.65;;;5.38;;
41946;SDS011;27638;42.184;24.848;2023-08-21T08:52:58;7.65;;;4.38;;
41946;SDS011;27638;42.184;24.848;2023-08-21T08:55:24;6.15;;;4.38;;
41946;SDS011;27638;42.184;24.848;2023-08-21T08:57:51;5.50;;;5.00;;
41946;SDS011;27638;42.184;24.848;2023-08-21T09:00:17;5.00;;;4.50;;
41946;SDS011;27638;42.184;24.848;2023-08-21T09:02:42;7.93;;;5.35;;
41946;SDS011;27638;42.184;24.848;2023-08-21T09:05:08;6.05;;;4.85;;
41946;SDS011;27638;42.184;24.848;2023-08-21T09:07:35;5.20;;;4.70;;
41946;SDS011;27638;42.184;24.848;2023-08-21T09:10:01;5.40;;;4.60;;
41946;SDS011;27638;42.184;24.848;2023-08-21T09:12:28;5.80;;;4.80;;
41946;SDS011;27638;42.184;24.848;2023-08-21T09:14:57;8.75;;;4.35;;
41946;SDS011;27638;42.184;24.848;2023-08-21T09:17:23;5.53;;;4.55;;
41946;SDS011;27638;42.184;24.848;2023-08-21T09:19:49;5.78;;;4.63;;
41946;SDS011;27638;42.184;24.848;2023-08-21T09:22:15;6.32;;;4.60;;
41946;SDS011;27638;42.184;24.848;2023-08-21T09:24:59;5.65;;;4.28;;
41946;SDS011;27638;42.184;24.848;2023-08-21T09:27:25;5.22;;;4.70;;
41946;SDS011;27638;42.184;24.848;2023-08-21T09:29:51;9.38;;;4.57;;
41946;SDS011;27638;42.184;24.848;2023-08-21T09:32:16;5.05;;;4.47;;
41946;SDS011;27638;42.184;24.848;2023-08-21T09:34:42;5.18;;;4.15;;
41946;SDS011;27638;42.184;24.848;2023-08-21T09:37:08;7.25;;;4.70;;
41946;SDS011;27638;42.184;24.848;2023-08-21T09:39:35;6.85;;;4.35;;
41946;SDS011;27638;42.184;24.848;2023-08-21T09:42:07;6.55;;;4.28;;
41946;SDS011;27638;42.184;24.848;2023-08-21T09:44:39;4.97;;;4.53;;
41946;SDS011;27638;42.184;24.848;2023-08-21T09:47:08;8.82;;;4.38;;
41946;SDS011;27638;42.184;24.848;2023-08-21T09:49:35;6.55;;;4.50;;
41946;SDS011;27638;42.184;24.848;2023-08-21T09:52:02;4.90;;;4.22;;
41946;SDS011;27638;42.184;24.848;2023-08-21T09:54:30;7.18;;;4.40;;
41946;SDS011;27638;42.184;24.848;2023-08-21T09:56:56;6.78;;;4.32;;
41946;SDS011;27638;42.184;24.848;2023-08-21T09:59:26;4.60;;;3.78;;
41946;SDS011;27638;42.184;24.848;2023-08-21T10:01:52;4.25;;;3.53;;
41946;SDS011;27638;42.184;24.848;2023-08-21T10:04:18;3.95;;;3.53;;
41946;SDS011;27638;42.184;24.848;2023-08-21T10:06:47;5.57;;;3.60;;
41946;SDS011;27638;42.184;24.848;2023-08-21T10:09:13;6.68;;;3.63;;
41946;SDS011;27638;42.184;24.848;2023-08-21T10:11:40;5.35;;;3.90;;
41946;SDS011;27638;42.184;24.848;2023-08-21T10:14:07;4.03;;;3.58;;
41946;SDS011;27638;42.184;24.848;2023-08-21T10:16:33;4.22;;;3.45;;
41946;SDS011;27638;42.184;24.848;2023-08-21T10:19:01;6.55;;;4.45;;
41946;SDS011;27638;42.184;24.848;2023-08-21T10:21:31;4.20;;;3.80;;
41946;SDS011;27638;42.184;24.848;2023-08-21T10:24:01;6.47;;;4.63;;
41946;SDS011;27638;42.184;24.848;2023-08-21T10:26:27;5.38;;;4.00;;
41946;SDS011;27638;42.184;24.848;2023-08-21T10:28:53;4.03;;;3.72;;
41946;SDS011;27638;42.184;24.848;2023-08-21T10:31:28;5.25;;;3.97;;
41946;SDS011;27638;42.184;24.848;2023-08-21T10:33:58;7.38;;;4.03;;
41946;SDS011;27638;42.184;24.848;2023-08-21T10:39:17;7.90;;;3.75;;
41946;SDS011;27638;42.184;24.848;2023-08-21T10:41:54;5.30;;;3.67;;
41946;SDS011;27638;42.184;24.848;2023-08-21T10:45:09;7.97;;;4.32;;
41946;SDS011;27638;42.184;24.848;2023-08-21T10:49:50;5.28;;;4.78;;
41946;SDS011;27638;42.184;24.848;2023-08-21T10:52:20;5.03;;;3.75;;
41946;SDS011;27638;42.184;24.848;2023-08-21T10:54:49;4.53;;;3.97;;
41946;SDS011;27638;42.184;24.848;2023-08-21T10:57:16;11.20;;;4.35;;
41946;SDS011;27638;42.184;24.848;2023-08-21T11:00:15;4.25;;;3.85;;
41946;SDS011;27638;42.184;24.848;2023-08-21T11:02:36;4.35;;;4.00;;
41946;SDS011;27638;42.184;24.848;2023-08-21T11:05:03;8.27;;;3.95;;
41946;SDS011;27638;42.184;24.848;2023-08-21T11:07:30;5.45;;;3.75;;
41946;SDS011;27638;42.184;24.848;2023-08-21T11:10:01;5.22;;;3.75;;
41946;SDS011;27638;42.184;24.848;2023-08-21T11:12:27;5.63;;;4.35;;
41946;SDS011;27638;42.184;24.848;2023-08-21T11:14:53;7.07;;;4.20;;
41946;SDS011;27638;42.184;24.848;2023-08-21T11:17:18;4.32;;;3.92;;
41946;SDS011;27638;42.184;24.848;2023-08-21T11:19:43;4.80;;;3.67;;
41946;SDS011;27638;42.184;24.848;2023-08-21T11:22:10;9.73;;;4.47;;
41946;SDS011;27638;42.184;24.848;2023-08-21T11:27:02;7.63;;;4.18;;
41946;SDS011;27638;42.184;24.848;2023-08-21T11:29:29;9.10;;;4.47;;
41946;SDS011;27638;42.184;24.848;2023-08-21T11:32:01;15.07;;;5.30;;
41946;SDS011;27638;42.184;24.848;2023-08-21T11:34:28;4.13;;;3.80;;
41946;SDS011;27638;42.184;24.848;2023-08-21T11:36:53;6.00;;;4.43;;
41946;SDS011;27638;42.184;24.848;2023-08-21T11:39:19;4.63;;;4.10;;
41946;SDS011;27638;42.184;24.848;2023-08-21T11:41:55;4.32;;;3.53;;
41946;SDS011;27638;42.184;24.848;2023-08-21T11:44:21;4.30;;;3.67;;
41946;SDS011;27638;42.184;24.848;2023-08-21T11:46:47;4.22;;;3.60;;
41946;SDS011;27638;42.184;24.848;2023-08-21T11:49:12;5.63;;;4.22;;
41946;SDS011;27638;42.184;24.848;2023-08-21T11:51:39;4.43;;;3.65;;
41946;SDS011;27638;42.184;24.848;2023-08-21T11:54:05;6.10;;;4.55;;
41946;SDS011;27638;42.184;24.848;2023-08-21T11:56:31;7.88;;;4.90;;
41946;SDS011;27638;42.184;24.848;2023-08-21T11:58:56;5.13;;;4.18;;
41946;SDS011;27638;42.184;24.848;2023-08-21T12:01:24;5.95;;;4.10;;
41946;SDS011;27638;42.184;24.848;2023-08-21T12:03:49;6.25;;;4.25;;
41946;SDS011;27638;42.184;24.848;2023-08-21T12:06:21;5.25;;;4.38;;
41946;SDS011;27638;42.184;24.848;2023-08-21T12:08:47;6.97;;;4.60;;
41946;SDS011;27638;42.184;24.848;2023-08-21T12:11:12;5.85;;;4.40;;
41946;SDS011;27638;42.184;24.848;2023-08-21T12:13:38;7.35;;;4.72;;
41946;SDS011;27638;42.184;24.848;2023-08-21T12:16:03;5.22;;;4.75;;
41946;SDS011;27638;42.184;24.848;2023-08-21T12:18:29;5.95;;;4.50;;
41946;SDS011;27638;42.184;24.848;2023-08-21T12:20:55;5.55;;;3.92;;
41946;SDS011;27638;42.184;24.848;2023-08-21T12:23:20;5.22;;;4.22;;
41946;SDS011;27638;42.184;24.848;2023-08-21T12:25:46;7.00;;;4.25;;
41946;SDS011;27638;42.184;24.848;2023-08-21T12:28:11;19.77;;;5.25;;
41946;SDS011;27638;42.184;24.848;2023-08-21T12:30:37;20.40;;;5.85;;
41946;SDS011;27638;42.184;24.848;2023-08-21T12:33:03;7.40;;;4.47;;
41946;SDS011;27638;42.184;24.848;2023-08-21T12:35:28;10.68;;;4.45;;
41946;SDS011;27638;42.184;24.848;2023-08-21T12:37:55;5.90;;;4.65;;
41946;SDS011;27638;42.184;24.848;2023-08-21T12:40:22;5.00;;;4.50;;
41946;SDS011;27638;42.184;24.848;2023-08-21T12:42:47;6.57;;;4.60;;
41946;SDS011;27638;42.184;24.848;2023-08-21T12:45:13;6.00;;;4.53;;
41946;SDS011;27638;42.184;24.848;2023-08-21T12:47:38;4.85;;;4.25;;
41946;SDS011;27638;42.184;24.848;2023-08-21T12:50:04;4.53;;;3.90;;
41946;SDS011;27638;42.184;24.848;2023-08-21T12:52:30;5.07;;;4.00;;
41946;SDS011;27638;42.184;24.848;2023-08-21T12:54:56;6.60;;;3.95;;
41946;SDS011;27638;42.184;24.848;2023-08-21T12:57:22;4.78;;;3.42;;
41946;SDS011;27638;42.184;24.848;2023-08-21T12:59:47;4.07;;;3.72;;
41946;SDS011;27638;42.184;24.848;2023-08-21T13:02:12;4.90;;;4.45;;
41946;SDS011;27638;42.184;24.848;2023-08-21T13:04:38;5.05;;;4.50;;
41946;SDS011;27638;42.184;24.848;2023-08-21T13:07:04;6.57;;;5.50;;
41946;SDS011;27638;42.184;24.848;2023-08-21T13:09:30;5.38;;;4.88;;
41946;SDS011;27638;42.184;24.848;2023-08-21T13:11:55;6.80;;;5.60;;
41946;SDS011;27638;42.184;24.848;2023-08-21T13:14:21;5.18;;;4.53;;
41946;SDS011;27638;42.184;24.848;2023-08-21T13:16:46;4.85;;;4.35;;
41946;SDS011;27638;42.184;24.848;2023-08-21T13:19:12;5.10;;;4.43;;
41946;SDS011;27638;42.184;24.848;2023-08-21T13:21:37;5.35;;;4.70;;
41946;SDS011;27638;42.184;24.848;2023-08-21T13:24:03;8.63;;;6.45;;
41946;SDS011;27638;42.184;24.848;2023-08-21T13:26:29;46.15;;;9.32;;
41946;SDS011;27638;42.184;24.848;2023-08-21T13:28:56;71.03;;;12.90;;
41946;SDS011;27638;42.184;24.848;2023-08-21T13:31:21;6.22;;;5.72;;
41946;SDS011;27638;42.184;24.848;2023-08-21T13:33:47;6.78;;;5.90;;
41946;SDS011;27638;42.184;24.848;2023-08-21T13:36:14;6.05;;;5.53;;
41946;SDS011;27638;42.184;24.848;2023-08-21T13:38:40;8.57;;;5.35;;
41946;SDS011;27638;42.184;24.848;2023-08-21T13:41:07;24.98;;;8.20;;
41946;SDS011;27638;42.184;24.848;2023-08-21T13:43:33;6.93;;;5.13;;
41946;SDS011;27638;42.184;24.848;2023-08-21T13:46:02;8.38;;;4.78;;
41946;SDS011;27638;42.184;24.848;2023-08-21T13:48:30;9.18;;;5.25;;
41946;SDS011;27638;42.184;24.848;2023-08-21T13:50:56;5.63;;;5.10;;
41946;SDS011;27638;42.184;24.848;2023-08-21T13:53:22;4.88;;;4.35;;
41946;SDS011;27638;42.184;24.848;2023-08-21T13:55:48;6.97;;;4.95;;
41946;SDS011;27638;42.184;24.848;2023-08-21T13:58:14;5.30;;;4.80;;
41946;SDS011;27638;42.184;24.848;2023-08-21T14:00:40;6.68;;;4.70;;
41946;SDS011;27638;42.184;24.848;2023-08-21T14:03:05;6.15;;;5.00;;
41946;SDS011;27638;42.184;24.848;2023-08-21T14:05:30;6.55;;;5.07;;
41946;SDS011;27638;42.184;24.848;2023-08-21T14:07:56;8.25;;;5.07;;
41946;SDS011;27638;42.184;24.848;2023-08-21T14:10:22;4.38;;;3.97;;
41946;SDS011;27638;42.184;24.848;2023-08-21T14:12:48;5.10;;;3.85;;
41946;SDS011;27638;42.184;24.848;2023-08-21T14:15:14;5.28;;;4.18;;
41946;SDS011;27638;42.184;24.848;2023-08-21T14:17:39;5.22;;;4.10;;
41946;SDS011;27638;42.184;24.848;2023-08-21T14:20:05;6.28;;;4.55;;
41946;SDS011;27638;42.184;24.848;2023-08-21T14:22:32;5.60;;;4.70;;
41946;SDS011;27638;42.184;24.848;2023-08-21T14:24:58;5.60;;;4.85;;
41946;SDS011;27638;42.184;24.848;2023-08-21T14:27:24;5.97;;;4.90;;
41946;SDS011;27638;42.184;24.848;2023-08-21T14:29:50;6.10;;;5.45;;
41946;SDS011;27638;42.184;24.848;2023-08-21T14:32:15;5.85;;;5.10;;
41946;SDS011;27638;42.184;24.848;2023-08-21T14:34:40;6.40;;;5.20;;
41946;SDS011;27638;42.184;24.848;2023-08-21T14:37:06;6.32;;;4.97;;
41946;SDS011;27638;42.184;24.848;2023-08-21T14:39:31;14.73;;;5.57;;
41946;SDS011;27638;42.184;24.848;2023-08-21T14:41:58;5.63;;;4.88;;